createdAt,value
2023-04-15T00:00:58.312Z,33.23
2023-04-15T00:03:28.614Z,39.93
2023-04-15T00:05:56.928Z,35.40
2023-04-15T00:08:24.855Z,38.77
2023-04-15T00:10:52.707Z,40.07
2023-04-15T00:13:20.670Z,39.77
2023-04-15T00:15:48.596Z,39.77
2023-04-15T00:18:16.481Z,41.60
2023-04-15T00:20:45.610Z,42.30
2023-04-15T00:23:13.565Z,38.80
2023-04-15T00:25:41.738Z,43.63
2023-04-15T00:28:09.897Z,40.03
2023-04-15T00:30:38.000Z,40.13
2023-04-15T00:33:05.897Z,38.80
2023-04-15T00:35:33.828Z,38.60
2023-04-15T00:38:03.130Z,37.73
2023-04-15T00:40:31.059Z,38.17
2023-04-15T00:42:58.861Z,38.00
2023-04-15T00:45:27.553Z,38.60
2023-04-15T00:47:56.709Z,37.57
2023-04-15T00:50:25.002Z,35.93
2023-04-15T00:52:52.920Z,36.67
2023-04-15T00:55:22.227Z,38.23
2023-04-15T00:57:50.154Z,36.77
2023-04-15T01:00:18.078Z,37.27
2023-04-15T01:02:47.485Z,36.17
2023-04-15T01:05:17.518Z,37.57
2023-04-15T01:07:46.098Z,36.57
2023-04-15T01:10:14.284Z,35.43
2023-04-15T01:12:44.972Z,37.53
2023-04-15T01:15:13.008Z,37.73
2023-04-15T01:17:41.197Z,36.93
2023-04-15T01:20:12.093Z,39.97
2023-04-15T01:22:40.704Z,37.67
2023-04-15T01:25:13.117Z,34.23
2023-04-15T01:27:43.205Z,37.50
2023-04-15T01:30:12.108Z,38.63
2023-04-15T01:32:40.018Z,40.03
2023-04-15T01:35:27.004Z,35.23
2023-04-15T01:37:55.252Z,37.47
2023-04-15T01:40:23.012Z,36.50
2023-04-15T01:42:52.400Z,38.70
2023-04-15T01:45:20.418Z,37.07
2023-04-15T01:47:49.302Z,37.23
2023-04-15T01:50:17.377Z,38.03
2023-04-15T01:52:45.273Z,38.17
2023-04-15T01:55:13.911Z,37.17
2023-04-15T01:57:42.170Z,37.07
2023-04-15T02:00:12.659Z,36.63
2023-04-15T02:02:43.496Z,37.93
2023-04-15T02:05:11.543Z,40.23
2023-04-15T02:07:39.478Z,37.63
2023-04-15T02:10:07.937Z,38.93
2023-04-15T02:12:36.930Z,36.60
2023-04-15T02:15:05.401Z,37.13
2023-04-15T02:17:37.329Z,35.50
2023-04-15T02:20:06.754Z,38.67
2023-04-15T02:22:34.543Z,37.97
2023-04-15T02:25:02.415Z,36.50
2023-04-15T02:27:30.598Z,40.70
2023-04-15T02:29:58.465Z,37.83
2023-04-15T02:32:26.370Z,38.27
2023-04-15T02:34:57.397Z,38.97
2023-04-15T02:37:27.483Z,40.17
2023-04-15T02:39:56.582Z,39.07
2023-04-15T02:42:27.590Z,40.00
2023-04-15T02:44:56.264Z,39.40
2023-04-15T02:47:28.646Z,36.17
2023-04-15T02:50:00.402Z,36.87
2023-04-15T02:52:28.532Z,35.37
2023-04-15T02:55:00.589Z,32.50
2023-04-15T02:57:29.450Z,35.93
2023-04-15T02:59:59.704Z,33.20
2023-04-15T03:02:27.790Z,35.27
2023-04-15T03:04:56.213Z,34.83
2023-04-15T03:07:25.517Z,36.77
2023-04-15T03:09:54.423Z,32.90
2023-04-15T03:12:22.309Z,32.77
2023-04-15T03:14:51.766Z,31.13
2023-04-15T03:17:23.151Z,31.53
2023-04-15T03:19:51.373Z,31.30
2023-04-15T03:22:19.415Z,30.93
2023-04-15T03:24:49.005Z,32.10
2023-04-15T03:27:18.375Z,30.83
2023-04-15T03:29:46.376Z,32.13
2023-04-15T03:32:16.680Z,29.10
2023-04-15T03:34:44.741Z,30.20
2023-04-15T03:37:12.894Z,31.60
2023-04-15T03:39:40.708Z,32.87
2023-04-15T03:42:09.937Z,31.00
2023-04-15T03:44:38.358Z,31.13
2023-04-15T03:47:06.653Z,34.37
2023-04-15T03:49:34.506Z,31.23
2023-04-15T03:52:02.521Z,29.70
2023-04-15T03:54:30.491Z,30.00
2023-04-15T03:56:58.333Z,30.23
2023-04-15T03:59:27.553Z,26.13
2023-04-15T04:01:55.610Z,27.93
2023-04-15T04:04:23.883Z,27.57
2023-04-15T04:06:51.818Z,29.97
2023-04-15T04:09:19.694Z,26.43
2023-04-15T04:11:47.605Z,28.63
2023-04-15T04:14:15.433Z,26.13
2023-04-15T04:16:45.238Z,26.47
2023-04-15T04:19:14.675Z,26.87
2023-04-15T04:21:42.518Z,24.03
2023-04-15T04:24:10.328Z,26.40
2023-04-15T04:26:38.225Z,25.77
2023-04-15T04:29:06.400Z,24.47
2023-04-15T04:31:34.254Z,23.63
2023-04-15T04:34:03.488Z,25.00
2023-04-15T04:36:31.699Z,24.27
2023-04-15T04:38:59.802Z,22.30
2023-04-15T04:41:27.841Z,23.03
2023-04-15T04:43:55.934Z,24.43
2023-04-15T04:46:23.761Z,22.80
2023-04-15T04:48:51.641Z,22.37
2023-04-15T04:51:21.209Z,22.80
2023-04-15T04:53:49.218Z,22.97
2023-04-15T04:56:17.047Z,23.63
2023-04-15T04:58:44.926Z,23.00
2023-04-15T05:01:13.017Z,20.33
2023-04-15T05:03:41.099Z,19.73
2023-04-15T05:06:09.090Z,22.50
2023-04-15T05:08:39.918Z,20.50
2023-04-15T05:11:08.933Z,18.33
2023-04-15T05:13:38.588Z,20.17
2023-04-15T05:16:07.509Z,18.23
2023-04-15T05:18:35.555Z,19.50
2023-04-15T05:21:03.733Z,18.53
2023-04-15T05:23:31.641Z,17.50
2023-04-15T05:26:00.819Z,17.57
2023-04-15T05:28:28.685Z,19.87
2023-04-15T05:30:56.769Z,16.23
2023-04-15T05:33:24.904Z,17.70
2023-04-15T05:35:52.802Z,18.37
2023-04-15T05:38:20.707Z,19.07
2023-04-15T05:40:48.524Z,17.87
2023-04-15T05:43:17.781Z,17.37
2023-04-15T05:45:45.859Z,16.90
2023-04-15T05:48:13.699Z,16.37
2023-04-15T05:50:42.222Z,15.67
2023-04-15T05:53:10.033Z,15.67
2023-04-15T05:55:38.029Z,15.60
2023-04-15T05:58:05.880Z,15.90
2023-04-15T06:00:35.097Z,15.57
2023-04-15T06:03:03.975Z,17.20
2023-04-15T06:05:31.897Z,17.87
2023-04-15T06:07:59.944Z,16.63
2023-04-15T06:10:28.045Z,14.97
2023-04-15T06:12:55.894Z,13.87
2023-04-15T06:15:23.985Z,14.67
2023-04-15T06:17:53.224Z,15.83
2023-04-15T06:20:21.119Z,14.40
2023-04-15T06:22:49.021Z,13.83
2023-04-15T06:25:16.889Z,14.43
2023-04-15T06:27:44.761Z,13.80
2023-04-15T06:30:13.413Z,13.20
2023-04-15T06:32:41.406Z,16.00
2023-04-15T06:35:11.637Z,12.87
2023-04-15T06:37:39.461Z,14.40
2023-04-15T06:40:10.003Z,16.50
2023-04-15T06:42:38.216Z,12.80
2023-04-15T06:45:07.229Z,13.10
2023-04-15T06:47:35.065Z,12.47
2023-04-15T06:50:03.984Z,15.20
2023-04-15T06:52:33.257Z,15.13
2023-04-15T06:55:02.002Z,12.40
2023-04-15T06:57:29.870Z,12.07
2023-04-15T06:59:57.661Z,12.70
2023-04-15T07:02:25.687Z,11.47
2023-04-15T07:04:54.277Z,14.00
2023-04-15T07:07:22.196Z,11.10
2023-04-15T07:09:53.568Z,10.63
2023-04-15T07:12:21.570Z,11.77
2023-04-15T07:14:49.529Z,10.97
2023-04-15T07:17:17.705Z,10.87
2023-04-15T07:19:45.531Z,10.87
2023-04-15T07:22:13.435Z,11.17
2023-04-15T07:24:41.526Z,10.63
2023-04-15T07:27:10.827Z,10.83
2023-04-15T07:29:38.693Z,11.43
2023-04-15T07:32:06.981Z,15.90
2023-04-15T07:34:34.963Z,12.33
2023-04-15T07:37:03.477Z,11.97
2023-04-15T07:39:31.443Z,12.17
2023-04-15T07:41:59.703Z,12.17
2023-04-15T07:44:29.089Z,11.37
2023-04-15T07:46:57.484Z,11.67
2023-04-15T07:49:25.601Z,13.10
2023-04-15T07:51:53.438Z,12.33
2023-04-15T07:54:21.489Z,12.00
2023-04-15T07:56:49.500Z,12.17
2023-04-15T07:59:19.246Z,12.40
2023-04-15T08:01:48.964Z,12.13
2023-04-15T08:04:17.423Z,13.70
2023-04-15T08:06:45.387Z,13.77
2023-04-15T08:09:13.229Z,13.10
2023-04-15T08:11:42.909Z,12.63
2023-04-15T08:14:11.594Z,13.13
2023-04-15T08:16:39.576Z,12.57
2023-04-15T08:19:09.275Z,12.43
2023-04-15T08:21:37.651Z,12.83
2023-04-15T08:24:05.701Z,13.37
2023-04-15T08:26:33.663Z,13.10
2023-04-15T08:29:02.159Z,13.97
2023-04-15T08:31:31.046Z,13.63
2023-04-15T08:33:59.332Z,13.77
2023-04-15T08:36:28.581Z,13.60
2023-04-15T08:38:56.636Z,13.60
2023-04-15T08:41:25.599Z,12.50
2023-04-15T08:43:55.594Z,13.77
2023-04-15T08:46:23.728Z,13.77
2023-04-15T08:48:52.157Z,13.60
2023-04-15T08:51:20.043Z,13.37
2023-04-15T08:53:50.239Z,14.40
2023-04-15T08:56:18.514Z,13.00
2023-04-15T08:58:46.453Z,13.03
2023-04-15T09:01:15.075Z,13.77
2023-04-15T09:03:43.503Z,14.07
2023-04-15T09:06:11.809Z,13.47
2023-04-15T09:08:39.661Z,12.90
2023-04-15T09:11:08.845Z,13.07
2023-04-15T09:13:36.942Z,13.07
2023-04-15T09:16:07.106Z,13.70
2023-04-15T09:18:36.274Z,13.97
2023-04-15T09:21:08.899Z,13.83
2023-04-15T09:23:37.014Z,15.37
2023-04-15T09:26:05.816Z,13.60
2023-04-15T09:28:35.869Z,23.47
2023-04-15T09:31:03.962Z,13.17
2023-04-15T09:33:31.825Z,13.13
2023-04-15T09:36:01.401Z,13.77
2023-04-15T09:38:29.480Z,12.67
2023-04-15T09:40:57.950Z,11.87
2023-04-15T09:43:40.330Z,12.40
2023-04-15T09:46:08.309Z,13.93
2023-04-15T09:48:36.357Z,13.03
2023-04-15T09:51:04.365Z,13.07
2023-04-15T09:53:35.338Z,13.30
2023-04-15T09:56:03.413Z,13.00
2023-04-15T09:58:33.585Z,13.27
2023-04-15T10:01:05.223Z,13.20
2023-04-15T10:03:36.843Z,13.43
2023-04-15T10:06:05.397Z,13.20
2023-04-15T10:08:34.743Z,13.80
2023-04-15T10:11:03.460Z,14.43
2023-04-15T10:13:35.049Z,14.60
2023-04-15T10:16:07.765Z,13.37
2023-04-15T10:18:37.447Z,14.10
2023-04-15T10:21:07.255Z,13.27
2023-04-15T10:23:35.549Z,12.60
2023-04-15T10:26:05.448Z,12.97
2023-04-15T10:28:33.370Z,13.53
2023-04-15T10:31:01.534Z,14.17
2023-04-15T10:33:31.163Z,14.23
2023-04-15T10:35:59.264Z,12.20
2023-04-15T10:38:39.493Z,12.20
2023-04-15T10:41:20.098Z,11.63
2023-04-15T10:43:53.502Z,11.37
2023-04-15T10:46:24.003Z,11.57
2023-04-15T10:48:54.945Z,10.70
2023-04-15T10:51:31.228Z,11.40
2023-04-15T10:54:00.820Z,10.63
2023-04-15T10:56:30.309Z,11.80
2023-04-15T10:59:00.645Z,13.13
2023-04-15T11:01:53.139Z,12.80
2023-04-15T11:04:53.938Z,12.23
2023-04-15T11:07:38.470Z,10.83
2023-04-15T11:10:55.392Z,11.97
2023-04-15T11:13:25.803Z,11.97
2023-04-15T11:15:58.161Z,12.27
2023-04-15T11:18:28.265Z,12.60
2023-04-15T11:20:59.786Z,12.10
2023-04-15T11:23:33.175Z,12.70
2023-04-15T11:26:02.512Z,12.60
2023-04-15T11:28:31.530Z,12.80
2023-04-15T11:30:59.962Z,11.80
2023-04-15T11:33:27.876Z,12.20
2023-04-15T11:35:57.165Z,11.97
2023-04-15T11:38:25.326Z,11.63
2023-04-15T11:40:53.232Z,11.97
2023-04-15T11:43:22.647Z,12.03
2023-04-15T11:45:53.603Z,11.20
2023-04-15T11:48:22.652Z,12.57
2023-04-15T11:50:56.401Z,11.77
2023-04-15T11:53:27.540Z,11.57
2023-04-15T11:55:55.347Z,11.80
2023-04-15T11:58:24.522Z,11.10
2023-04-15T12:00:54.509Z,11.37
2023-04-15T12:03:27.336Z,11.40
2023-04-15T12:06:19.203Z,12.07
2023-04-15T12:09:08.682Z,12.67
2023-04-15T12:11:41.970Z,11.90
2023-04-15T12:14:12.801Z,11.17
2023-04-15T12:16:48.309Z,11.67
2023-04-15T12:19:19.890Z,11.90
2023-04-15T12:21:48.824Z,10.83
2023-04-15T12:24:21.987Z,11.47
2023-04-15T12:26:51.420Z,10.53
2023-04-15T12:29:19.365Z,11.07
2023-04-15T12:31:56.651Z,11.20
2023-04-15T12:34:29.374Z,10.10
2023-04-15T12:36:58.108Z,9.20
2023-04-15T12:39:30.610Z,9.47
2023-04-15T12:41:59.223Z,9.27
2023-04-15T12:44:27.822Z,8.87
2023-04-15T12:46:56.224Z,8.77
2023-04-15T12:49:25.432Z,8.20
2023-04-15T12:51:54.734Z,8.70
2023-04-15T12:54:22.710Z,8.33
2023-04-15T12:56:52.265Z,9.17
2023-04-15T12:59:20.225Z,8.47
2023-04-15T13:01:48.819Z,9.00
2023-04-15T13:04:17.470Z,9.07
2023-04-15T13:06:45.460Z,10.20
2023-04-15T13:09:13.542Z,9.83
2023-04-15T13:11:41.721Z,10.13
2023-04-15T13:14:11.378Z,10.03
2023-04-15T13:16:39.750Z,8.47
2023-04-15T13:19:07.958Z,8.70
2023-04-15T13:21:36.538Z,8.43
2023-04-15T13:24:06.971Z,7.87
2023-04-15T13:26:35.098Z,9.37
2023-04-15T13:29:02.993Z,30.73
2023-04-15T13:31:32.292Z,8.13
2023-04-15T13:34:00.414Z,7.20
2023-04-15T13:36:28.514Z,6.93
2023-04-15T13:38:56.952Z,6.97
2023-04-15T13:41:24.935Z,5.70
2023-04-15T13:43:52.769Z,6.70
2023-04-15T13:46:20.673Z,6.77
2023-04-15T13:48:50.020Z,7.93
2023-04-15T13:51:17.962Z,7.03
2023-04-15T13:53:45.935Z,7.37
2023-04-15T13:56:13.821Z,8.30
2023-04-15T13:58:41.930Z,8.07
2023-04-15T14:01:09.844Z,7.87
2023-04-15T14:03:38.022Z,7.17
2023-04-15T14:06:07.874Z,8.30
2023-04-15T14:08:35.899Z,6.83
2023-04-15T14:11:03.936Z,6.40
2023-04-15T14:13:31.836Z,6.83
2023-04-15T14:15:59.716Z,7.40
2023-04-15T14:18:27.530Z,7.00
2023-04-15T14:20:55.536Z,6.77
2023-04-15T14:23:24.821Z,6.37
2023-04-15T14:25:52.781Z,6.30
2023-04-15T14:28:20.696Z,7.80
2023-04-15T14:30:48.642Z,7.23
2023-04-15T14:33:16.788Z,6.60
2023-04-15T14:35:44.725Z,6.30
2023-04-15T14:38:12.609Z,6.03
2023-04-15T14:40:42.409Z,5.97
2023-04-15T14:43:10.370Z,6.33
2023-04-15T14:45:40.691Z,6.40
2023-04-15T14:48:12.541Z,7.87
2023-04-15T14:50:41.172Z,8.33
2023-04-15T14:53:09.123Z,7.27
2023-04-15T14:55:36.972Z,7.50
2023-04-15T14:58:08.134Z,7.63
2023-04-15T15:00:39.191Z,7.73
2023-04-15T15:03:12.507Z,7.00
2023-04-15T15:05:41.045Z,7.20
2023-04-15T15:08:09.140Z,7.30
2023-04-15T15:10:49.498Z,7.77
2023-04-15T15:13:19.725Z,6.73
2023-04-15T15:15:49.264Z,8.00
2023-04-15T15:18:18.748Z,9.70
2023-04-15T15:20:46.904Z,7.83
2023-04-15T15:23:15.523Z,7.47
2023-04-15T15:25:43.439Z,7.20
2023-04-15T15:28:11.374Z,6.20
2023-04-15T15:30:40.625Z,6.20
2023-04-15T15:33:08.425Z,5.87
2023-04-15T15:35:36.333Z,5.40
2023-04-15T15:38:04.199Z,5.70
2023-04-15T15:40:32.037Z,5.93
2023-04-15T15:42:59.886Z,6.63
2023-04-15T15:45:27.896Z,7.60
2023-04-15T15:47:58.269Z,10.57
2023-04-15T15:50:26.352Z,7.57
2023-04-15T15:52:55.065Z,7.47
2023-04-15T15:55:23.358Z,6.57
2023-04-15T15:57:51.384Z,6.57
2023-04-15T16:00:19.321Z,6.37
2023-04-15T16:05:19.586Z,6.77
2023-04-15T16:07:47.457Z,6.40
2023-04-15T16:10:15.927Z,7.00
2023-04-15T16:12:43.784Z,6.53
2023-04-15T16:15:12.907Z,7.83
2023-04-15T16:17:41.014Z,6.10
2023-04-15T16:20:09.956Z,5.50
2023-04-15T16:22:39.872Z,7.10
2023-04-15T16:25:08.520Z,6.73
2023-04-15T16:27:46.769Z,6.57
2023-04-15T16:30:24.608Z,5.40
2023-04-15T16:32:52.658Z,5.50
2023-04-15T16:35:20.890Z,6.50
2023-04-15T16:37:50.355Z,6.97
2023-04-15T16:40:18.407Z,46.47
2023-04-15T16:42:46.719Z,9.33
2023-04-15T16:45:15.016Z,8.00
2023-04-15T16:47:42.955Z,5.80
2023-04-15T16:50:12.189Z,5.23
2023-04-15T16:52:40.167Z,5.70
2023-04-15T16:55:09.903Z,5.33
2023-04-15T16:58:01.693Z,5.93
2023-04-15T17:00:25.917Z,6.60
2023-04-15T17:02:54.054Z,5.80
2023-04-15T17:05:21.994Z,5.40
2023-04-15T17:07:49.932Z,5.77
2023-04-15T17:10:19.652Z,5.87
2023-04-15T17:12:47.542Z,5.23
2023-04-15T17:15:15.374Z,5.43
2023-04-15T17:17:48.420Z,5.27
2023-04-15T17:20:17.357Z,5.30
2023-04-15T17:22:46.145Z,6.30
2023-04-15T17:25:15.051Z,6.90
2023-04-15T17:27:49.024Z,6.43
2023-04-15T17:30:21.340Z,7.10
2023-04-15T17:33:55.929Z,5.97
2023-04-15T17:36:17.221Z,8.00
2023-04-15T17:39:05.261Z,6.37
2023-04-15T17:41:53.221Z,6.93
2023-04-15T17:44:49.705Z,6.60
2023-04-15T17:47:37.573Z,7.80
2023-04-15T17:50:25.351Z,6.40
2023-04-15T17:53:13.160Z,6.77
2023-04-15T17:56:01.062Z,7.00
2023-04-15T17:58:48.822Z,67.03
2023-04-15T18:01:38.049Z,8.33
2023-04-15T18:04:26.910Z,7.10
2023-04-15T18:07:15.576Z,6.33
2023-04-15T18:10:03.444Z,6.87
2023-04-15T18:12:51.180Z,8.80
2023-04-15T18:15:39.024Z,6.80
2023-04-15T18:18:29.121Z,6.83
2023-04-15T18:21:01.514Z,7.93
2023-04-15T18:23:29.412Z,8.20
2023-04-15T18:25:58.225Z,9.13
2023-04-15T18:28:26.110Z,9.20
2023-04-15T18:30:54.579Z,8.27
2023-04-15T18:33:22.470Z,8.17
2023-04-15T18:35:51.720Z,8.57
2023-04-15T18:38:19.561Z,8.97
2023-04-15T18:40:47.418Z,10.63
2023-04-15T18:43:15.554Z,8.17
2023-04-15T18:45:44.023Z,8.47
2023-04-15T18:48:12.473Z,8.87
2023-04-15T18:50:40.326Z,8.20
2023-04-15T18:53:09.549Z,79.77
2023-04-15T18:55:37.436Z,9.63
2023-04-15T18:58:09.044Z,8.27
2023-04-15T19:00:40.554Z,7.77
2023-04-15T19:03:09.147Z,7.43
2023-04-15T19:05:37.159Z,7.60
2023-04-15T19:08:05.072Z,8.13
2023-04-15T19:10:35.126Z,8.63
2023-04-15T19:13:04.455Z,8.87
2023-04-15T19:15:32.508Z,8.90
2023-04-15T19:18:00.519Z,9.43
2023-04-15T19:20:28.379Z,10.77
2023-04-15T19:22:56.809Z,10.60
2023-04-15T19:25:24.813Z,12.87
2023-04-15T19:27:54.050Z,12.70
2023-04-15T19:30:22.296Z,13.43
2023-04-15T19:32:50.153Z,13.07
2023-04-15T19:35:18.226Z,13.70
2023-04-15T19:37:46.148Z,14.87
2023-04-15T19:40:14.091Z,12.93
2023-04-15T19:42:42.105Z,13.67
2023-04-15T19:45:14.764Z,15.57
2023-04-15T19:47:42.763Z,12.97
2023-04-15T19:50:11.882Z,12.87
2023-04-15T19:52:39.793Z,14.50
2023-04-15T19:55:10.988Z,14.73
2023-04-15T19:57:38.959Z,15.97
2023-04-15T20:00:08.125Z,15.17
2023-04-15T20:02:37.421Z,15.77
2023-04-15T20:05:09.618Z,14.87
2023-04-15T20:07:37.549Z,14.60
2023-04-15T20:10:12.431Z,16.43
2023-04-15T20:12:50.053Z,14.13
2023-04-15T20:15:20.800Z,13.70
2023-04-15T20:17:50.301Z,14.73
2023-04-15T20:20:18.282Z,14.47
2023-04-15T20:22:46.237Z,15.17
2023-04-15T20:25:14.148Z,16.30
2023-04-15T20:27:41.986Z,15.20
2023-04-15T20:30:13.097Z,14.90
2023-04-15T20:32:41.057Z,13.13
2023-04-15T20:35:12.709Z,14.20
2023-04-15T20:37:40.653Z,14.80
2023-04-15T20:40:09.745Z,15.73
2023-04-15T20:42:37.901Z,14.57
2023-04-15T20:45:07.017Z,15.07
2023-04-15T20:47:34.901Z,15.50
2023-04-15T20:50:03.367Z,14.73
2023-04-15T20:52:32.568Z,15.13
2023-04-15T20:55:00.710Z,15.23
2023-04-15T20:57:30.069Z,14.70
2023-04-15T20:59:57.971Z,15.10
2023-04-15T21:02:26.052Z,16.03
2023-04-15T21:04:54.085Z,15.73
2023-04-15T21:07:24.085Z,16.70
2023-04-15T21:09:55.145Z,16.37
2023-04-15T21:12:23.086Z,16.33
2023-04-15T21:14:51.177Z,16.93
2023-04-15T21:17:19.245Z,15.77
2023-04-15T21:19:47.334Z,15.80
2023-04-15T21:22:15.212Z,15.37
2023-04-15T21:24:43.269Z,17.00
2023-04-15T21:27:12.470Z,15.30
2023-04-15T21:29:41.325Z,15.30
2023-04-15T21:32:09.476Z,17.10
2023-04-15T21:34:37.469Z,18.20
2023-04-15T21:37:05.310Z,16.37
2023-04-15T21:39:33.406Z,15.83
2023-04-15T21:42:01.334Z,17.80
2023-04-15T21:44:30.562Z,17.80
2023-04-15T21:46:58.543Z,17.50
2023-04-15T21:49:26.774Z,18.20
2023-04-15T21:51:54.682Z,17.93
2023-04-15T21:54:22.694Z,17.37
2023-04-15T21:56:50.835Z,17.03
2023-04-15T21:59:18.783Z,15.67
2023-04-15T22:01:48.233Z,16.40
2023-04-15T22:04:16.357Z,16.03
2023-04-15T22:06:44.326Z,16.90
2023-04-15T22:09:14.125Z,17.00
2023-04-15T22:11:42.306Z,16.63
2023-04-15T22:14:10.447Z,17.27
2023-04-15T22:16:38.410Z,15.70
2023-04-15T22:19:07.908Z,15.37
2023-04-15T22:21:35.963Z,16.33
2023-04-15T22:24:38.762Z,16.20
2023-04-15T22:26:52.096Z,16.07
2023-04-15T22:29:20.113Z,18.20
2023-04-15T22:31:48.052Z,52.63
2023-04-15T22:34:21.197Z,16.70
2023-04-15T22:36:49.152Z,16.55
2023-04-15T22:39:17.168Z,16.70
2023-04-15T22:41:45.506Z,16.77
2023-04-15T22:44:13.501Z,18.17
2023-04-15T22:46:41.561Z,16.93
2023-04-15T22:49:10.471Z,17.90
2023-04-15T22:51:39.686Z,17.03
2023-04-15T22:54:07.621Z,17.73
2023-04-15T22:56:35.658Z,16.87
2023-04-15T22:59:03.557Z,17.33
2023-04-15T23:01:32.168Z,17.80
2023-04-15T23:04:23.042Z,17.60
2023-04-15T23:06:49.376Z,16.73
2023-04-15T23:09:17.209Z,17.83
2023-04-15T23:11:45.165Z,17.93
2023-04-15T23:14:12.973Z,19.07
2023-04-15T23:16:41.005Z,17.97
2023-04-15T23:19:09.442Z,18.10
2023-04-15T23:21:37.504Z,17.57
2023-04-15T23:24:07.249Z,16.80
2023-04-15T23:26:35.214Z,17.73
2023-04-15T23:29:03.055Z,17.67
2023-04-15T23:31:30.986Z,18.13
2023-04-15T23:33:58.983Z,17.73
2023-04-15T23:36:27.168Z,18.23
2023-04-15T23:38:55.131Z,18.90
2023-04-15T23:41:24.360Z,17.83
2023-04-15T23:43:52.300Z,19.43
2023-04-15T23:46:20.248Z,17.73
2023-04-15T23:48:49.067Z,18.33
2023-04-15T23:51:17.247Z,18.70
2023-04-15T23:53:45.399Z,18.77
2023-04-15T23:56:13.333Z,18.83
2023-04-15T23:58:42.612Z,18.80
